Gainesville, FL

4:16 AM EDT on July 28, 2016 (GMT -0400)
Cross City | | Change Station

Elev 43 ft 29.64 °N, 83.10 °W | Updated 23 minutes ago

Clear
Clear
78 °F
Feels Like 78 °F
N
0
Wind Variable Wind from North
Gusts mph

Today
High -- | Low -- °F
--% Chance of Precip.
Yesterday
High -- | Low -- °F
Precip. -- in
Pressure 30.04 in
Visibility -9999.0 miles
Clouds
Dew Point 74 °F
Humidity 87%
Rainfall 0.01 in
Snow Depth Not available.
6:47 AM 8:24 PM
Waning Crescent, 34% visible
METAR KCTY 280753Z AUTO 00000KT 26/23 A3005 RMK AO1 SLP173 T02560233
Pressure 30.04 in
Visibility -9999.0 miles
Clouds
Dew Point 74 °F
Humidity 87%
Rainfall 0.01 in
Snow Depth Not available.
6:47 AM 8:24 PM
Waning Crescent, 34% visible
METAR KCTY 280753Z AUTO 00000KT 26/23 A3005 RMK AO1 SLP173 T02560233

10-Day Weather Forecast

Almanac

Astronomy

Jul. 28, 2016 Rise Set
Actual Time
Civil Twilight
Nautical Twilight
Astronomical Twilight
Moon
Length of Visible Light
Length of Day
Tomorrow will be .
, % of the Moon is Illuminated

Today's Extremes

State Highs State Lows

Community

WunderPhotos

Upload Photos

1,928,070 photos uploaded!

WunderBlog® & News

Nearby

Air Quality

  Air Quality AQ Index Pollutant
Not available.

Snow Depth

Station Depth Elevation

Earthquake Activity

City Distance Mag. Time & Date
Minimum magnitude displayed is 2.5.

Coastal Water Temperatures

Place Temperature

Stations

Nearby Weather Stations

Station Location Temp. Windchill Dew Point Humidity Wind Precip. Elev Updated Type
                   

Watches & Warnings

There are currently no watches in effect.